Latest Weather Observations for Spring Bay

IDT60801

Issued at 2:31 pm EDT Sunday 25 January 2015 (issued every 30 minutes, with the page automatically refreshed every 10 minutes)

About weather observations | Map of weather stations | Latest weather observations for TAS | Other Formats
Station Details ID: 092133 Name: SPRING BAY NTC AWS Lat: -42.55 Lon: 147.93 Height: 0.0 m
Data from the previous 72 hours. | See also: Recent months for locations in Tasmania
Date/Time
EDT
Temp
°C
App
Temp
°C
Dew
Point
Rel
Hum
%
Delta-T
°C
Wind Press
QNH
hPa
Press
MSL
hPa
Rain
since 9 am
mm
Dir
 
Spd
km/h
Gust
km/h
Spd
kts
Gust
kts
25/02:30pm 17.1 - - - - - - - - - 998.5 998.5 -
25/02:00pm 16.9 - - - - - - - - - 998.6 998.6 -
25/01:30pm 16.8 - - - - - - - - - 998.3 998.3 -
25/01:00pm 16.7 - - - - - - - - - 998.3 998.3 -
25/12:30pm 16.4 - - - - - - - - - 998.5 998.5 -
25/12:00pm 15.9 - - - - - - - - - 998.5 998.5 -
25/11:30am 14.9 - - - - - - - - - 998.7 998.7 -
25/11:00am 13.8 - - - - - - - - - 998.5 998.5 -
25/10:30am 14.1 - - - - - - - - - 998.6 998.6 -
25/10:00am 13.9 - - - - - - - - - 998.1 998.1 -
25/09:30am 13.7 - - - - - - - - - 998.2 998.2 -
25/09:00am 14.1 - - - - - - - - - 998.4 998.4 -
25/08:30am 14.8 - - - - - - - - - 998.5 998.5 -
25/08:00am 15.0 - - - - - - - - - 997.6 997.6 -
25/07:30am 16.4 - - - - - - - - - 997.5 997.5 -
25/07:00am 16.3 - - - - - - - - - 997.0 997.0 -
25/06:30am 16.4 - - - - - - - - - 996.8 996.8 -
25/06:00am 16.3 - - - - - - - - - 996.4 996.4 -
25/05:30am 16.5 - - - - - - - - - 996.6 996.6 -
25/05:00am 16.1 - - - - - - - - - 996.4 996.4 -
25/04:30am 16.3 - - - - - - - - - 996.6 996.6 -
25/04:00am 16.2 - - - - - - - - - 996.4 996.4 -
25/03:30am 16.3 - - - - - - - - - 996.8 996.8 -
25/03:00am 16.1 - - - - - - - - - 997.0 997.0 -
25/02:30am 16.9 - - - - - - - - - 997.1 997.1 -
25/02:00am 17.1 - - - - - - - - - 997.5 997.5 -
25/01:30am 17.7 - - - - - - - - - 997.8 997.8 -
25/01:00am 18.1 - - - - - - - - - 997.9 997.9 -
25/12:30am 18.0 - - - - - - - - - 998.3 998.3 -
25/12:00am 17.9 - - - - - - - - - 998.2 998.2 -
 
Date/Time
EDT
Temp
°C
App
Temp
°C
Dew
Point
Rel
Hum
%
Delta-T
°C
Wind Press
QNH
hPa
Press
MSL
hPa
Rain
since 9 am
mm
Dir
 
Spd
km/h
Gust
km/h
Spd
kts
Gust
kts
24/11:30pm 17.9 - - - - - - - - - 998.4 998.4 -
24/11:00pm 18.2 - - - - - - - - - 998.5 998.5 -
24/10:30pm 18.6 - - - - - - - - - 998.4 998.4 -
24/10:00pm 19.1 - - - - - - - - - 998.2 998.2 -
24/09:30pm 19.9 - - - - - - - - - 998.3 998.3 -
24/09:00pm 20.6 - - - - - - - - - 998.3 998.3 -
24/08:30pm 21.1 - - - - - - - - - 997.6 997.6 -
24/08:00pm 21.6 - - - - - - - - - 997.4 997.4 -
24/07:30pm 22.0 - - - - - - - - - 997.1 997.1 -
24/07:00pm 22.2 - - - - - - - - - 996.9 996.9 -
24/06:30pm 22.9 - - - - - - - - - 996.7 996.7 -
24/06:00pm 22.3 - - - - - - - - - 997.0 997.0 -
24/05:30pm 22.8 - - - - - - - - - 997.5 997.5 -
24/05:00pm 22.8 - - - - - - - - - 997.9 997.9 -
24/04:30pm 22.8 - - - - - - - - - 998.3 998.3 -
24/04:00pm 22.4 - - - - - - - - - 998.5 998.5 -
24/03:30pm 22.7 - - - - - - - - - 998.9 998.9 -
24/03:00pm 21.5 - - - - - - - - - 999.5 999.5 -
24/02:30pm 22.1 - - - - - - - - - 999.8 999.8 -
24/02:00pm 22.5 - - - - - - - - - 1000.3 1000.3 -
24/01:30pm 20.6 - - - - - - - - - 1000.8 1000.8 -
24/01:00pm 20.2 - - - - - - - - - 1001.2 1001.2 -
24/12:30pm 19.4 - - - - - - - - - 1001.8 1001.8 -
24/12:00pm 19.9 - - - - - - - - - 1001.9 1001.9 -
24/11:30am 19.0 - - - - - - - - - 1002.4 1002.4 -
24/11:00am 18.4 - - - - - - - - - 1003.0 1003.0 -
24/10:30am 18.7 - - - - - - - - - 1003.4 1003.4 -
24/10:00am 18.0 - - - - - - - - - 1004.0 1004.0 -
24/09:30am 17.7 - - - - - - - - - 1004.3 1004.3 -
24/09:00am 17.2 - - - - - - - - - 1004.7 1004.7 -
24/08:30am 16.0 - - - - - - - - - 1005.0 1005.0 -
24/08:00am 15.4 - - - - - - - - - 1005.2 1005.2 -
24/07:30am 14.9 - - - - - - - - - 1005.3 1005.3 -
24/07:00am 14.7 - - - - - - - - - 1005.3 1005.3 -
24/06:30am 14.7 - - - - - - - - - 1005.3 1005.3 -
24/06:00am 14.8 - - - - - - - - - 1005.4 1005.4 -
24/05:30am 14.8 - - - - - - - - - 1005.3 1005.3 -
24/05:00am 15.0 - - - - - - - - - 1005.4 1005.4 -
24/04:30am 15.3 - - - - - - - - - 1005.7 1005.7 -
24/04:00am 15.4 - - - - - - - - - 1006.2 1006.2 -
24/03:30am 15.5 - - - - - - - - - 1006.5 1006.5 -
24/03:00am 15.5 - - - - - - - - - 1006.7 1006.7 -
24/02:30am 15.3 - - - - - - - - - 1007.1 1007.1 -
24/02:00am 15.0 - - - - - - - - - 1007.4 1007.4 -
24/01:30am 14.6 - - - - - - - - - 1007.7 1007.7 -
24/01:00am 14.2 - - - - - - - - - 1007.9 1007.9 -
24/12:30am 14.0 - - - - - - - - - 1008.3 1008.3 -
24/12:00am 14.2 - - - - - - - - - 1008.4 1008.4 -
 
Date/Time
EDT
Temp
°C
App
Temp
°C
Dew
Point
Rel
Hum
%
Delta-T
°C
Wind Press
QNH
hPa
Press
MSL
hPa
Rain
since 9 am
mm
Dir
 
Spd
km/h
Gust
km/h
Spd
kts
Gust
kts
23/11:30pm 14.5 - - - - - - - - - 1007.9 1007.9 -
23/11:00pm 15.1 - - - - - - - - - 1007.7 1007.7 -
23/10:30pm 15.3 - - - - - - - - - 1007.4 1007.4 -
23/10:00pm 15.0 - - - - - - - - - 1007.2 1007.2 -
23/09:30pm 14.9 - - - - - - - - - 1007.1 1007.1 -
23/09:00pm 15.4 - - - - - - - - - 1006.6 1006.6 -
23/08:30pm 15.5 - - - - - - - - - 1006.2 1006.2 -
23/08:00pm 16.5 - - - - - - - - - 1005.8 1005.8 -
23/07:30pm 17.0 - - - - - - - - - 1005.0 1005.0 -
23/07:00pm 17.2 - - - - - - - - - 1004.1 1004.1 -
23/06:30pm 17.7 - - - - - - - - - 1003.4 1003.4 -
23/06:00pm 18.0 - - - - - - - - - 1003.0 1003.0 -
23/05:30pm 17.9 - - - - - - - - - 1002.6 1002.6 -
23/05:00pm 18.3 - - - - - - - - - 1002.0 1002.0 -
23/04:30pm 18.4 - - - - - - - - - 1001.8 1001.8 -
23/04:00pm 18.8 - - - - - - - - - 1001.3 1001.3 -
23/03:30pm 19.0 - - - - - - - - - 1000.9 1000.9 -
23/03:00pm 19.8 - - - - - - - - - 1000.4 1000.4 -
23/02:30pm 19.6 - - - - - - - - - 999.9 999.9 -
23/02:00pm 20.0 - - - - - - - - - 999.5 999.5 -
23/01:30pm 20.2 - - - - - - - - - 999.4 999.4 -
23/01:00pm 21.2 - - - - - - - - - 999.2 999.2 -
23/12:30pm 22.0 - - - - - - - - - 998.7 998.7 -
23/12:00pm 25.6 - - - - - - - - - 998.2 998.2 -
23/11:30am 24.5 - - - - - - - - - 998.2 998.2 -
23/11:00am 23.4 - - - - - - - - - 998.5 998.5 -
23/10:30am 23.2 - - - - - - - - - 998.7 998.7 -
23/10:00am 23.0 - - - - - - - - - 998.9 998.9 -
23/09:30am 22.7 - - - - - - - - - 999.4 999.4 -
23/09:00am 22.4 - - - - - - - - - 999.7 999.7 -
23/08:30am 21.8 - - - - - - - - - 999.8 999.8 -
23/08:00am 21.4 - - - - - - - - - 999.9 999.9 -
23/07:30am 20.5 - - - - - - - - - 999.5 999.5 -
23/07:00am 20.6 - - - - - - - - - 999.7 999.7 -
23/06:30am 21.1 - - - - - - - - - 999.8 999.8 -
23/06:00am 21.1 - - - - - - - - - 999.9 999.9 -
23/05:30am 19.7 - - - - - - - - - 1000.3 1000.3 -
23/05:00am 18.8 - - - - - - - - - 1000.4 1000.4 -
23/04:30am 16.9 - - - - - - - - - 1000.7 1000.7 -
23/04:00am 16.8 - - - - - - - - - 1000.7 1000.7 -
23/03:30am 17.1 - - - - - - - - - 1000.8 1000.8 -
23/03:00am 17.3 - - - - - - - - - 1001.0 1001.0 -
23/02:30am 17.8 - - - - - - - - - 1001.5 1001.5 -
23/02:00am 18.1 - - - - - - - - - 1002.1 1002.1 -

Other Formats:

Comma delimited format used in spreadsheet applications
http://www.bom.gov.au/fwo/IDT60801/IDT60801.95987.axf

JavaScript Object Notation format (JSON) in row-major order
http://www.bom.gov.au/fwo/IDT60801/IDT60801.95987.json